4XCWE LLHZ-LLHZ

Flight info

Callsign 4XCWE
Flight time 0h 3m
Altitude 800
Route CVFR
Aircraft C152/L-VD/A

Departure

Time 2026-04-27 15:43
Airport Herzliya Airport (LLHZ)

Arrival

Time 2026-04-27 15:47
Airport Herzliya Airport (LLHZ)
Time Latitude Longitude Altitude Speed Heading
2026-04-27 15:38 32.17881 34.83779 118 ft 0 kts 110°
2026-04-27 15:41 32.17881 34.83783 118 ft 5 kts 98°
2026-04-27 15:41 32.17889 34.83815 118 ft 0 kts 77°
2026-04-27 15:42 32.17917 34.83830 122 ft 10 kts 341°
2026-04-27 15:42 32.17960 34.83697 113 ft 41 kts 291°
2026-04-27 15:42 32.18089 34.83275 233 ft 53 kts 298°
2026-04-27 15:43 32.18228 34.82858 364 ft 59 kts 297°
2026-04-27 15:43 32.18602 34.82787 485 ft 60 kts 12°
2026-04-27 15:43 32.18997 34.82929 656 ft 57 kts 13°
2026-04-27 15:43 32.19341 34.83162 778 ft 74 kts 57°
2026-04-27 15:44 32.19199 34.83877 709 ft 102 kts 111°
2026-04-27 15:44 32.18860 34.84660 629 ft 111 kts 114°
2026-04-27 15:44 32.18456 34.85376 724 ft 107 kts 152°
2026-04-27 15:44 32.17748 34.85238 628 ft 103 kts 210°
2026-04-27 15:45 32.17618 34.84669 436 ft 66 kts 301°
2026-04-27 15:45 32.17786 34.84240 249 ft 53 kts 295°
2026-04-27 15:45 32.17910 34.83852 135 ft 53 kts 294°
2026-04-27 15:45 32.18031 34.83464 103 ft 52 kts 290°
2026-04-27 15:46 32.18167 34.83019 263 ft 57 kts 298°
2026-04-27 15:46 32.18277 34.82925 194 ft 73 kts 149°
2026-04-27 15:47 32.17881 34.83779 118 ft 0 kts 110°
2026-04-27 15:49 32.17890 34.83807 117 ft 6 kts 103°
2026-04-27 15:49 32.17889 34.83816 118 ft 0 kts 80°
2026-04-27 15:50 32.17924 34.83812 119 ft 8 kts 290°
2026-04-27 15:50 32.18014 34.83527 105 ft 61 kts 288°
2026-04-27 15:50 32.18183 34.83121 310 ft 54 kts 338°
2026-04-27 15:51 32.18590 34.83145 451 ft 60 kts
2026-04-27 15:51 32.18970 34.83293 683 ft 51 kts 12°
2026-04-27 15:51 32.19311 34.83437 838 ft 58 kts
2026-04-27 15:51 32.19722 34.83579 943 ft 60 kts 11°
2026-04-27 15:52 32.20088 34.83714 1107 ft 52 kts
2026-04-27 15:52 32.20430 34.83807 1310 ft 49 kts
2026-04-27 15:52 32.20826 34.83888 1404 ft 66 kts
2026-04-27 15:52 32.21317 34.83961 1527 ft 73 kts
2026-04-27 15:53 32.21793 34.84021 1742 ft 65 kts
2026-04-27 15:53 32.22267 34.84122 1869 ft 70 kts
2026-04-27 15:53 32.22751 34.84257 1976 ft 71 kts 10°
2026-04-27 15:53 32.23211 34.84377 2121 ft 68 kts
2026-04-27 15:54 32.23679 34.84502 2291 ft 68 kts
2026-04-27 15:54 32.24165 34.84637 2405 ft 75 kts 10°
2026-04-27 15:54 32.24705 34.84828 2407 ft 87 kts 11°
2026-04-27 15:54 32.25299 34.84992 2425 ft 87 kts
2026-04-27 15:55 32.25916 34.85140 2407 ft 92 kts
2026-04-27 15:55 32.26340 34.85259 2425 ft 91 kts
2026-04-27 15:55 32.27163 34.85447 2476 ft 89 kts 359°
2026-04-27 15:55 32.27586 34.85917 2495 ft 101 kts 84°
2026-04-27 15:56 32.27122 34.86562 2347 ft 115 kts 176°
2026-04-27 15:56 32.26370 34.86533 2363 ft 111 kts 186°
2026-04-27 15:56 32.25564 34.86491 2236 ft 117 kts 185°
2026-04-27 15:56 32.24729 34.86559 2041 ft 126 kts 172°
2026-04-27 15:57 32.23871 34.86719 1780 ft 120 kts 173°
2026-04-27 15:57 32.23076 34.86827 1545 ft 106 kts 175°
2026-04-27 15:57 32.22395 34.86832 1394 ft 102 kts 185°
2026-04-27 15:57 32.21579 34.86756 1119 ft 125 kts 186°
2026-04-27 15:58 32.21068 34.86698 1007 ft 126 kts 187°
2026-04-27 15:58 32.20474 34.86835 1152 ft 102 kts 123°
2026-04-27 15:58 32.20717 34.87285 1227 ft 83 kts
2026-04-27 15:58 32.21269 34.87240 1210 ft 88 kts 354°
2026-04-27 15:59 32.21889 34.87276 1197 ft 90 kts
2026-04-27 15:59 32.22506 34.87422 1214 ft 89 kts
2026-04-27 15:59 32.23099 34.87599 1256 ft 89 kts 12°
2026-04-27 15:59 32.23704 34.87801 1267 ft 92 kts 13°
2026-04-27 16:00 32.23804 34.87835 1262 ft 93 kts 13°
2026-04-27 16:00 32.23836 34.87846 1264 ft 93 kts 12°
2026-04-27 16:00 32.24155 34.88623 1229 ft 112 kts 118°